CheckWX is a tool to help pilots better visualize weather data.  It is not intended as a substitute for an official pre-flight weather briefing.

02:54:28 UTC

KMMV METAR
Mc Minnville Municipal Airport
Mc Minnville, Oregon, USA
Current

1 hour ago

KMMV 240153Z AUTO 26003KT 10SM OVC100 11/07 A3019 RMK AO2 SLP222 T01060067
Observed
Mar-24 @ 01:53 UTC
Wind
  • 260° at 3 KTS
Visibility
10 SM
Flight Rules
VFR
Cloud Levels
  • Overcast at 10,000' AGL
Temperature
11°C / 52°F
Dewpoint
C / 45°F
Humidity
77%
Altimeter
30.19" Hg
Pressure
1022.2 hPa
Previous

2 hours ago

KMMV 240053Z AUTO 26009KT 10SM FEW038 FEW110 11/06 A3018 RMK AO2 RAE47 SLP221 P0001 T01060061
Observed
Mar-24 @ 00:53 UTC
Wind
  • 260° at 9 KTS
Visibility
10 SM
Flight Rules
VFR
Cloud Levels
  • Few at 3,800' AGL
  • Few at 11,000' AGL
Temperature
11°C / 52°F
Dewpoint
C / 43°F
Humidity
72%
Altimeter
30.18" Hg
Pressure
1022.1 hPa
Current Rain
0.01"
Previous

3 hours ago

KMMV 232353Z AUTO 03004KT 4SM -RA FEW019 BKN045 OVC055 11/06 A3019 RMK AO2 RAB19 SLP221 P0005 60005 T01110061 10144 20089 51007
Observed
Mar-23 @ 23:53 UTC
Wind
  • 030° at 4 KTS
Visibility
4 SM
Flight Rules
MVFR
Conditions
Light Rain
Cloud Levels
  • Few at 1,900' AGL
  • Broken at 4,500' AGL
  • Overcast at 5,500' AGL
Temperature
11°C / 52°F
Dewpoint
C / 43°F
Humidity
72%
Altimeter
30.19" Hg
Pressure
1022.1 hPa
Current Rain
0.05"